Portada
METAR-TAF:

METAR-TAF

Aeroports :

Dibrugarh, Índia

latitud: 27-29N, longitud: 095-01E, altitud: 110 m

Observació

L'informe es va fer fa 56 minuts, a les 11:00 UTC
Vent calma
Temperatura 29°C
Humitat 70%
Pressió 1012 hPa
Visibilitat: 5000 m
Escasses núvols a una alçada de 2500 ft
calitja

METAR: VEMN 281100Z 00000KT 5000 HZ FEW025 29/23 Q1012 BECMG 4000 HZ

Hora: 17:26 (11:56 UTC)

Pronòstic

L'informe es va fer fa 56 minuts, a les 11:00 UTC
Pronòstic vàlid del 28 a les 12 UTC al 28 a les 21 UTC
Vent kt del Nord
Visibilitat: 5000 m
Escasses núvols a una alçada de 2500 ft
calitja
Evolucionant progressivament
l' 28 a les 15 UTC al 28 a les 21 UTC
Vent kt del Nord
Visibilitat: 3000 m
Escasses núvols a una alçada de 2000 ft
Núvols disperses a una alçada de 10000 ft
boirina

TAF: VEMN 281100Z 2812/2821 00000KT 5000 HZ FEW025 BECMG 2815/2821 00000KT 3000 BR FEW020 SCT100

Observacions i pronòstics meteorològics de més de 4000 aeroports (METAR i TAF).

Les estacions disponibles són els punts grocs i vermells al mapa.

Posi el ratolí al punt desitjat per veure el nom de l'estació.

Feu clic per veure les observacions i els pronòstics meteorològics.

Per canviar el mapa: feu clic els botons verds amb una creu de color negre per apropar; al botó verd amb un guió per allunyar la imatge; o en les fletxes verdes per a mapes adjacents.


METAR-TAF: